sensor_id;sensor_type;location;lat;lon;timestamp;temperature;humidity
58809;DHT22;44579;51.672;7.834;2023-03-03T00:02:37;2.30;91.10
58809;DHT22;44579;51.672;7.834;2023-03-03T00:05:08;2.30;91.10
58809;DHT22;44579;51.672;7.834;2023-03-03T00:07:36;2.30;91.10
58809;DHT22;44579;51.672;7.834;2023-03-03T00:10:04;2.30;91.10
58809;DHT22;44579;51.672;7.834;2023-03-03T00:12:31;2.20;91.10
58809;DHT22;44579;51.672;7.834;2023-03-03T00:15:00;2.30;91.10
58809;DHT22;44579;51.672;7.834;2023-03-03T00:17:28;2.30;91.20
58809;DHT22;44579;51.672;7.834;2023-03-03T00:19:56;2.30;91.20
58809;DHT22;44579;51.672;7.834;2023-03-03T00:22:32;2.30;91.20
58809;DHT22;44579;51.672;7.834;2023-03-03T00:25:23;2.30;91.10
58809;DHT22;44579;51.672;7.834;2023-03-03T00:27:51;2.30;91.10
58809;DHT22;44579;51.672;7.834;2023-03-03T00:30:23;2.30;91.10
58809;DHT22;44579;51.672;7.834;2023-03-03T00:32:54;2.30;91.10
58809;DHT22;44579;51.672;7.834;2023-03-03T00:35:23;2.30;91.00
58809;DHT22;44579;51.672;7.834;2023-03-03T00:37:55;2.30;90.90
58809;DHT22;44579;51.672;7.834;2023-03-03T00:40:25;2.30;90.90
58809;DHT22;44579;51.672;7.834;2023-03-03T00:42:54;2.30;90.80
58809;DHT22;44579;51.672;7.834;2023-03-03T00:48:22;2.30;90.90
58809;DHT22;44579;51.672;7.834;2023-03-03T00:50:52;2.30;91.00
58809;DHT22;44579;51.672;7.834;2023-03-03T00:53:22;2.30;91.10
58809;DHT22;44579;51.672;7.834;2023-03-03T00:55:51;2.30;91.30
58809;DHT22;44579;51.672;7.834;2023-03-03T00:58:20;2.30;91.20
58809;DHT22;44579;51.672;7.834;2023-03-03T01:00:50;2.30;91.20
58809;DHT22;44579;51.672;7.834;2023-03-03T01:03:26;2.30;91.30
58809;DHT22;44579;51.672;7.834;2023-03-03T01:05:53;2.30;91.30
58809;DHT22;44579;51.672;7.834;2023-03-03T01:08:23;2.30;91.30
58809;DHT22;44579;51.672;7.834;2023-03-03T01:10:52;2.30;91.30
58809;DHT22;44579;51.672;7.834;2023-03-03T01:13:27;2.30;91.30
58809;DHT22;44579;51.672;7.834;2023-03-03T01:15:59;2.30;91.30
58809;DHT22;44579;51.672;7.834;2023-03-03T01:18:28;2.30;91.20
58809;DHT22;44579;51.672;7.834;2023-03-03T01:20:56;2.30;91.00
58809;DHT22;44579;51.672;7.834;2023-03-03T01:23:26;2.40;91.00
58809;DHT22;44579;51.672;7.834;2023-03-03T01:25:54;2.40;90.90
58809;DHT22;44579;51.672;7.834;2023-03-03T01:28:23;2.40;90.80
58809;DHT22;44579;51.672;7.834;2023-03-03T01:30:53;2.40;90.70
58809;DHT22;44579;51.672;7.834;2023-03-03T01:33:23;2.40;90.50
58809;DHT22;44579;51.672;7.834;2023-03-03T01:35:51;2.40;90.50
58809;DHT22;44579;51.672;7.834;2023-03-03T01:38:19;2.40;90.50
58809;DHT22;44579;51.672;7.834;2023-03-03T01:40:54;2.40;90.40
58809;DHT22;44579;51.672;7.834;2023-03-03T01:43:26;2.40;90.40
58809;DHT22;44579;51.672;7.834;2023-03-03T01:50:53;2.30;90.50
58809;DHT22;44579;51.672;7.834;2023-03-03T01:53:32;2.30;90.50
58809;DHT22;44579;51.672;7.834;2023-03-03T01:56:01;2.30;90.40
58809;DHT22;44579;51.672;7.834;2023-03-03T01:58:34;2.30;90.40
58809;DHT22;44579;51.672;7.834;2023-03-03T02:01:06;2.40;90.30
58809;DHT22;44579;51.672;7.834;2023-03-03T02:03:40;2.30;90.20
58809;DHT22;44579;51.672;7.834;2023-03-03T02:06:10;2.30;90.20
58809;DHT22;44579;51.672;7.834;2023-03-03T02:11:41;2.30;90.30
58809;DHT22;44579;51.672;7.834;2023-03-03T02:14:45;2.30;90.40
58809;DHT22;44579;51.672;7.834;2023-03-03T02:17:19;2.30;90.80
58809;DHT22;44579;51.672;7.834;2023-03-03T02:20:06;2.20;90.50
58809;DHT22;44579;51.672;7.834;2023-03-03T02:22:46;2.30;90.60
58809;DHT22;44579;51.672;7.834;2023-03-03T02:25:20;2.30;90.60
58809;DHT22;44579;51.672;7.834;2023-03-03T02:27:57;2.30;90.60
58809;DHT22;44579;51.672;7.834;2023-03-03T02:30:36;2.30;90.50
58809;DHT22;44579;51.672;7.834;2023-03-03T02:33:09;2.30;90.60
58809;DHT22;44579;51.672;7.834;2023-03-03T02:35:37;2.20;90.60
58809;DHT22;44579;51.672;7.834;2023-03-03T02:38:15;2.20;90.50
58809;DHT22;44579;51.672;7.834;2023-03-03T02:40:46;2.20;90.50
58809;DHT22;44579;51.672;7.834;2023-03-03T02:43:16;2.30;90.50
58809;DHT22;44579;51.672;7.834;2023-03-03T02:45:46;2.30;90.50
58809;DHT22;44579;51.672;7.834;2023-03-03T02:48:14;2.20;90.60
58809;DHT22;44579;51.672;7.834;2023-03-03T02:50:43;2.20;90.80
58809;DHT22;44579;51.672;7.834;2023-03-03T02:53:12;2.20;90.70
58809;DHT22;44579;51.672;7.834;2023-03-03T02:55:39;2.20;90.80
58809;DHT22;44579;51.672;7.834;2023-03-03T02:58:09;2.20;91.00
58809;DHT22;44579;51.672;7.834;2023-03-03T03:00:36;2.20;90.90
58809;DHT22;44579;51.672;7.834;2023-03-03T03:03:04;2.20;90.90
58809;DHT22;44579;51.672;7.834;2023-03-03T03:05:34;2.20;90.80
58809;DHT22;44579;51.672;7.834;2023-03-03T03:08:03;2.20;90.70
58809;DHT22;44579;51.672;7.834;2023-03-03T03:10:34;2.20;90.60
58809;DHT22;44579;51.672;7.834;2023-03-03T03:13:04;2.20;90.60
58809;DHT22;44579;51.672;7.834;2023-03-03T03:15:31;2.20;90.70
58809;DHT22;44579;51.672;7.834;2023-03-03T03:17:58;2.20;90.80
58809;DHT22;44579;51.672;7.834;2023-03-03T03:20:26;2.10;90.70
58809;DHT22;44579;51.672;7.834;2023-03-03T03:22:53;2.10;90.60
58809;DHT22;44579;51.672;7.834;2023-03-03T03:25:21;2.10;90.60
58809;DHT22;44579;51.672;7.834;2023-03-03T03:27:48;2.10;90.70
58809;DHT22;44579;51.672;7.834;2023-03-03T03:30:15;2.10;90.70
58809;DHT22;44579;51.672;7.834;2023-03-03T03:32:42;2.20;90.70
58809;DHT22;44579;51.672;7.834;2023-03-03T03:35:09;2.10;90.70
58809;DHT22;44579;51.672;7.834;2023-03-03T03:37:37;2.10;90.70
58809;DHT22;44579;51.672;7.834;2023-03-03T03:40:05;2.10;90.60
58809;DHT22;44579;51.672;7.834;2023-03-03T03:42:32;2.10;90.70
58809;DHT22;44579;51.672;7.834;2023-03-03T03:44:59;2.10;90.90
58809;DHT22;44579;51.672;7.834;2023-03-03T03:47:27;2.10;91.00
58809;DHT22;44579;51.672;7.834;2023-03-03T03:49:55;2.10;91.20
58809;DHT22;44579;51.672;7.834;2023-03-03T03:52:22;2.20;91.20
58809;DHT22;44579;51.672;7.834;2023-03-03T03:54:50;2.10;91.10
58809;DHT22;44579;51.672;7.834;2023-03-03T03:57:17;2.20;91.00
58809;DHT22;44579;51.672;7.834;2023-03-03T03:59:44;2.20;90.90
58809;DHT22;44579;51.672;7.834;2023-03-03T04:02:11;2.20;90.90
58809;DHT22;44579;51.672;7.834;2023-03-03T04:04:38;2.20;90.90
58809;DHT22;44579;51.672;7.834;2023-03-03T04:07:07;2.20;90.90
58809;DHT22;44579;51.672;7.834;2023-03-03T04:09:37;2.20;90.90
58809;DHT22;44579;51.672;7.834;2023-03-03T04:12:04;2.10;90.90
58809;DHT22;44579;51.672;7.834;2023-03-03T04:14:31;2.10;90.90
58809;DHT22;44579;51.672;7.834;2023-03-03T04:16:59;2.10;90.90
58809;DHT22;44579;51.672;7.834;2023-03-03T04:19:26;2.10;90.90
58809;DHT22;44579;51.672;7.834;2023-03-03T04:21:53;2.10;91.00
58809;DHT22;44579;51.672;7.834;2023-03-03T04:24:20;2.10;91.10
58809;DHT22;44579;51.672;7.834;2023-03-03T04:26:49;2.00;91.10
58809;DHT22;44579;51.672;7.834;2023-03-03T04:29:16;2.00;91.20
58809;DHT22;44579;51.672;7.834;2023-03-03T04:31:47;2.00;91.20
58809;DHT22;44579;51.672;7.834;2023-03-03T04:34:15;2.00;91.30
58809;DHT22;44579;51.672;7.834;2023-03-03T04:36:42;2.00;91.30
58809;DHT22;44579;51.672;7.834;2023-03-03T04:39:09;2.10;91.20
58809;DHT22;44579;51.672;7.834;2023-03-03T04:41:38;2.00;91.20
58809;DHT22;44579;51.672;7.834;2023-03-03T04:44:15;2.00;91.20
58809;DHT22;44579;51.672;7.834;2023-03-03T04:46:42;2.00;91.10
58809;DHT22;44579;51.672;7.834;2023-03-03T04:49:10;2.10;91.10
58809;DHT22;44579;51.672;7.834;2023-03-03T04:51:40;2.10;91.10
58809;DHT22;44579;51.672;7.834;2023-03-03T04:54:07;2.10;91.20
58809;DHT22;44579;51.672;7.834;2023-03-03T04:56:34;2.10;91.20
58809;DHT22;44579;51.672;7.834;2023-03-03T04:59:03;2.10;91.20
58809;DHT22;44579;51.672;7.834;2023-03-03T05:01:31;2.10;91.10
58809;DHT22;44579;51.672;7.834;2023-03-03T05:03:59;2.10;91.20
58809;DHT22;44579;51.672;7.834;2023-03-03T05:06:27;2.10;91.30
58809;DHT22;44579;51.672;7.834;2023-03-03T05:08:54;2.00;91.30
58809;DHT22;44579;51.672;7.834;2023-03-03T05:11:21;2.00;91.20
58809;DHT22;44579;51.672;7.834;2023-03-03T05:13:48;2.00;91.30
58809;DHT22;44579;51.672;7.834;2023-03-03T05:16:15;2.00;91.30
58809;DHT22;44579;51.672;7.834;2023-03-03T05:18:42;2.00;91.30
58809;DHT22;44579;51.672;7.834;2023-03-03T05:21:09;2.00;91.30
58809;DHT22;44579;51.672;7.834;2023-03-03T05:23:35;2.00;91.30
58809;DHT22;44579;51.672;7.834;2023-03-03T05:26:02;2.00;91.30
58809;DHT22;44579;51.672;7.834;2023-03-03T05:28:29;2.00;91.30
58809;DHT22;44579;51.672;7.834;2023-03-03T05:30:56;2.10;91.20
58809;DHT22;44579;51.672;7.834;2023-03-03T05:33:23;2.10;91.10
58809;DHT22;44579;51.672;7.834;2023-03-03T05:35:54;2.10;91.10
58809;DHT22;44579;51.672;7.834;2023-03-03T05:38:22;2.10;91.10
58809;DHT22;44579;51.672;7.834;2023-03-03T05:40:49;2.20;91.50
58809;DHT22;44579;51.672;7.834;2023-03-03T05:43:16;2.10;91.00
58809;DHT22;44579;51.672;7.834;2023-03-03T05:45:43;2.10;91.00
58809;DHT22;44579;51.672;7.834;2023-03-03T05:48:11;2.10;90.90
58809;DHT22;44579;51.672;7.834;2023-03-03T05:50:38;2.20;91.00
58809;DHT22;44579;51.672;7.834;2023-03-03T05:53:06;2.20;90.90
58809;DHT22;44579;51.672;7.834;2023-03-03T05:55:32;2.10;90.90
58809;DHT22;44579;51.672;7.834;2023-03-03T05:58:00;2.10;90.90
58809;DHT22;44579;51.672;7.834;2023-03-03T06:00:26;2.20;90.90
58809;DHT22;44579;51.672;7.834;2023-03-03T06:02:56;2.20;90.90
58809;DHT22;44579;51.672;7.834;2023-03-03T06:05:23;2.20;90.80
58809;DHT22;44579;51.672;7.834;2023-03-03T06:07:51;2.20;90.90
58809;DHT22;44579;51.672;7.834;2023-03-03T06:10:18;2.20;90.90
58809;DHT22;44579;51.672;7.834;2023-03-03T06:12:50;2.20;90.90
58809;DHT22;44579;51.672;7.834;2023-03-03T06:15:17;2.10;91.00
58809;DHT22;44579;51.672;7.834;2023-03-03T06:17:45;2.00;91.10
58809;DHT22;44579;51.672;7.834;2023-03-03T06:20:12;2.10;91.20
58809;DHT22;44579;51.672;7.834;2023-03-03T06:22:39;2.00;91.30
58809;DHT22;44579;51.672;7.834;2023-03-03T06:25:06;2.00;91.30
58809;DHT22;44579;51.672;7.834;2023-03-03T06:27:35;2.00;91.30
58809;DHT22;44579;51.672;7.834;2023-03-03T06:30:05;2.00;91.30
58809;DHT22;44579;51.672;7.834;2023-03-03T06:32:36;2.00;91.30
58809;DHT22;44579;51.672;7.834;2023-03-03T06:35:07;2.00;91.30
58809;DHT22;44579;51.672;7.834;2023-03-03T06:37:35;2.00;91.30
58809;DHT22;44579;51.672;7.834;2023-03-03T06:40:04;2.00;91.30
58809;DHT22;44579;51.672;7.834;2023-03-03T06:42:34;2.00;91.20
58809;DHT22;44579;51.672;7.834;2023-03-03T06:45:06;2.00;91.10
58809;DHT22;44579;51.672;7.834;2023-03-03T06:47:34;2.00;91.10
58809;DHT22;44579;51.672;7.834;2023-03-03T06:50:04;1.90;91.10
58809;DHT22;44579;51.672;7.834;2023-03-03T06:52:32;2.00;91.10
58809;DHT22;44579;51.672;7.834;2023-03-03T06:55:00;2.00;91.10
58809;DHT22;44579;51.672;7.834;2023-03-03T06:57:33;2.00;91.00
58809;DHT22;44579;51.672;7.834;2023-03-03T07:00:12;2.00;90.90
58809;DHT22;44579;51.672;7.834;2023-03-03T07:03:01;2.00;90.90
58809;DHT22;44579;51.672;7.834;2023-03-03T07:05:32;2.00;90.80
58809;DHT22;44579;51.672;7.834;2023-03-03T07:08:19;2.10;90.80
58809;DHT22;44579;51.672;7.834;2023-03-03T07:11:07;2.10;90.80
58809;DHT22;44579;51.672;7.834;2023-03-03T07:13:36;2.10;90.80
58809;DHT22;44579;51.672;7.834;2023-03-03T07:16:15;2.10;90.80
58809;DHT22;44579;51.672;7.834;2023-03-03T07:19:00;2.10;90.80
58809;DHT22;44579;51.672;7.834;2023-03-03T07:24:00;2.10;90.70
58809;DHT22;44579;51.672;7.834;2023-03-03T07:26:29;2.10;90.70
58809;DHT22;44579;51.672;7.834;2023-03-03T07:31:41;2.20;90.70
58809;DHT22;44579;51.672;7.834;2023-03-03T07:34:20;2.10;90.80
58809;DHT22;44579;51.672;7.834;2023-03-03T07:36:52;2.10;90.90
58809;DHT22;44579;51.672;7.834;2023-03-03T07:39:27;2.10;90.90
58809;DHT22;44579;51.672;7.834;2023-03-03T07:42:13;2.10;90.90
58809;DHT22;44579;51.672;7.834;2023-03-03T07:44:51;2.10;91.10
58809;DHT22;44579;51.672;7.834;2023-03-03T07:47:27;2.10;91.10
58809;DHT22;44579;51.672;7.834;2023-03-03T07:50:22;2.10;91.10
58809;DHT22;44579;51.672;7.834;2023-03-03T07:52:56;2.10;91.10
58809;DHT22;44579;51.672;7.834;2023-03-03T07:55:35;2.10;91.20
58809;DHT22;44579;51.672;7.834;2023-03-03T08:07:13;2.10;91.80
58809;DHT22;44579;51.672;7.834;2023-03-03T08:12:33;2.20;91.30
58809;DHT22;44579;51.672;7.834;2023-03-03T08:15:19;2.30;91.30
58809;DHT22;44579;51.672;7.834;2023-03-03T08:17:53;2.30;91.20
58809;DHT22;44579;51.672;7.834;2023-03-03T08:20:42;2.30;91.10
58809;DHT22;44579;51.672;7.834;2023-03-03T08:23:12;2.40;91.10
58809;DHT22;44579;51.672;7.834;2023-03-03T08:25:40;2.40;91.10
58809;DHT22;44579;51.672;7.834;2023-03-03T08:28:11;2.30;91.10
58809;DHT22;44579;51.672;7.834;2023-03-03T08:30:43;2.30;91.10
58809;DHT22;44579;51.672;7.834;2023-03-03T08:33:12;2.30;91.10
58809;DHT22;44579;51.672;7.834;2023-03-03T08:35:40;2.30;91.20
58809;DHT22;44579;51.672;7.834;2023-03-03T08:38:08;2.30;91.50
58809;DHT22;44579;51.672;7.834;2023-03-03T08:40:42;2.30;91.10
58809;DHT22;44579;51.672;7.834;2023-03-03T08:43:12;2.40;91.10
58809;DHT22;44579;51.672;7.834;2023-03-03T08:45:47;2.40;91.10
58809;DHT22;44579;51.672;7.834;2023-03-03T08:48:15;2.40;91.20
58809;DHT22;44579;51.672;7.834;2023-03-03T08:50:46;2.40;91.20
58809;DHT22;44579;51.672;7.834;2023-03-03T08:53:19;2.40;91.20
58809;DHT22;44579;51.672;7.834;2023-03-03T08:55:48;2.40;91.20
58809;DHT22;44579;51.672;7.834;2023-03-03T08:59:04;2.50;91.40
58809;DHT22;44579;51.672;7.834;2023-03-03T09:02:58;2.50;91.30
58809;DHT22;44579;51.672;7.834;2023-03-03T09:05:34;2.50;91.30
58809;DHT22;44579;51.672;7.834;2023-03-03T09:08:14;2.60;91.40
58809;DHT22;44579;51.672;7.834;2023-03-03T09:11:00;2.60;91.30
58809;DHT22;44579;51.672;7.834;2023-03-03T09:13:40;2.60;91.20
58809;DHT22;44579;51.672;7.834;2023-03-03T09:16:22;2.70;91.20
58809;DHT22;44579;51.672;7.834;2023-03-03T09:18:50;2.70;91.10
58809;DHT22;44579;51.672;7.834;2023-03-03T09:21:23;2.70;91.00
58809;DHT22;44579;51.672;7.834;2023-03-03T09:23:55;2.80;91.00
58809;DHT22;44579;51.672;7.834;2023-03-03T09:29:32;2.80;90.90
58809;DHT22;44579;51.672;7.834;2023-03-03T09:32:19;2.80;90.90
58809;DHT22;44579;51.672;7.834;2023-03-03T09:34:56;2.90;90.90
58809;DHT22;44579;51.672;7.834;2023-03-03T09:37:36;2.90;90.80
58809;DHT22;44579;51.672;7.834;2023-03-03T09:43:35;2.80;90.90
58809;DHT22;44579;51.672;7.834;2023-03-03T09:46:22;2.80;90.90
58809;DHT22;44579;51.672;7.834;2023-03-03T09:51:55;2.80;90.90
58809;DHT22;44579;51.672;7.834;2023-03-03T09:54:38;2.90;90.90
58809;DHT22;44579;51.672;7.834;2023-03-03T10:00:15;2.90;90.80
58809;DHT22;44579;51.672;7.834;2023-03-03T10:11:24;3.00;90.70
58809;DHT22;44579;51.672;7.834;2023-03-03T10:14:12;3.00;90.60
58809;DHT22;44579;51.672;7.834;2023-03-03T10:17:01;3.00;90.60
58809;DHT22;44579;51.672;7.834;2023-03-03T10:19:40;3.10;90.60
58809;DHT22;44579;51.672;7.834;2023-03-03T10:22:15;3.10;90.60
58809;DHT22;44579;51.672;7.834;2023-03-03T10:27:35;3.10;90.50
58809;DHT22;44579;51.672;7.834;2023-03-03T10:33:08;3.20;90.60
58809;DHT22;44579;51.672;7.834;2023-03-03T10:44:17;3.30;90.50
58809;DHT22;44579;51.672;7.834;2023-03-03T10:55:32;3.60;90.20
58809;DHT22;44579;51.672;7.834;2023-03-03T10:58:10;3.70;90.20
58809;DHT22;44579;51.672;7.834;2023-03-03T11:14:30;4.00;89.50
58809;DHT22;44579;51.672;7.834;2023-03-03T11:25:28;4.00;89.40
58809;DHT22;44579;51.672;7.834;2023-03-03T11:30:56;4.20;89.30
58809;DHT22;44579;51.672;7.834;2023-03-03T11:33:31;4.30;89.10
58809;DHT22;44579;51.672;7.834;2023-03-03T11:44:08;4.30;88.60
58809;DHT22;44579;51.672;7.834;2023-03-03T11:46:50;4.30;88.50
58809;DHT22;44579;51.672;7.834;2023-03-03T11:52:27;4.50;88.10
58809;DHT22;44579;51.672;7.834;2023-03-03T11:55:13;4.60;88.00
58809;DHT22;44579;51.672;7.834;2023-03-03T12:00:46;4.70;87.90
58809;DHT22;44579;51.672;7.834;2023-03-03T12:06:22;5.00;87.90
58809;DHT22;44579;51.672;7.834;2023-03-03T12:12:18;5.00;87.40
58809;DHT22;44579;51.672;7.834;2023-03-03T12:14:54;5.00;86.90
58809;DHT22;44579;51.672;7.834;2023-03-03T12:21:08;5.20;87.50
58809;DHT22;44579;51.672;7.834;2023-03-03T12:23:37;5.30;87.60
58809;DHT22;44579;51.672;7.834;2023-03-03T12:26:17;5.50;87.80
58809;DHT22;44579;51.672;7.834;2023-03-03T12:31:44;5.60;87.50
58809;DHT22;44579;51.672;7.834;2023-03-03T12:40:25;5.30;86.10
58809;DHT22;44579;51.672;7.834;2023-03-03T12:46:06;5.40;86.50
58809;DHT22;44579;51.672;7.834;2023-03-03T12:48:47;5.50;86.50
58809;DHT22;44579;51.672;7.834;2023-03-03T12:57:50;5.90;86.90
58809;DHT22;44579;51.672;7.834;2023-03-03T13:08:18;6.30;87.30
58809;DHT22;44579;51.672;7.834;2023-03-03T13:11:12;6.30;86.90
58809;DHT22;44579;51.672;7.834;2023-03-03T13:16:27;6.10;84.90
58809;DHT22;44579;51.672;7.834;2023-03-03T13:19:11;6.00;84.70
58809;DHT22;44579;51.672;7.834;2023-03-03T13:21:59;6.00;84.90
58809;DHT22;44579;51.672;7.834;2023-03-03T13:24:32;6.00;85.20
58809;DHT22;44579;51.672;7.834;2023-03-03T13:29:40;6.20;85.30
58809;DHT22;44579;51.672;7.834;2023-03-03T13:32:13;6.20;85.30
58809;DHT22;44579;51.672;7.834;2023-03-03T13:34:50;6.30;85.30
58809;DHT22;44579;51.672;7.834;2023-03-03T13:37:28;6.30;85.20
58809;DHT22;44579;51.672;7.834;2023-03-03T13:40:18;6.30;85.20
58809;DHT22;44579;51.672;7.834;2023-03-03T13:43:01;6.30;84.90
58809;DHT22;44579;51.672;7.834;2023-03-03T13:45:43;6.10;84.40
58809;DHT22;44579;51.672;7.834;2023-03-03T13:51:11;6.00;85.00
58809;DHT22;44579;51.672;7.834;2023-03-03T13:56:31;6.00;84.60
58809;DHT22;44579;51.672;7.834;2023-03-03T14:07:11;6.20;84.10
58809;DHT22;44579;51.672;7.834;2023-03-03T14:09:53;6.20;84.10
58809;DHT22;44579;51.672;7.834;2023-03-03T14:12:41;6.20;84.10
58809;DHT22;44579;51.672;7.834;2023-03-03T14:20:51;6.40;83.90
58809;DHT22;44579;51.672;7.834;2023-03-03T14:28:41;6.20;83.10
58809;DHT22;44579;51.672;7.834;2023-03-03T14:31:15;6.20;83.30
58809;DHT22;44579;51.672;7.834;2023-03-03T14:34:40;6.10;83.40
58809;DHT22;44579;51.672;7.834;2023-03-03T14:36:50;6.00;83.30
58809;DHT22;44579;51.672;7.834;2023-03-03T14:39:36;6.00;83.40
58809;DHT22;44579;51.672;7.834;2023-03-03T14:45:51;5.70;83.20
58809;DHT22;44579;51.672;7.834;2023-03-03T14:47:57;5.60;83.60
58809;DHT22;44579;51.672;7.834;2023-03-03T14:50:35;5.60;83.70
58809;DHT22;44579;51.672;7.834;2023-03-03T14:55:41;5.60;83.10
58809;DHT22;44579;51.672;7.834;2023-03-03T14:58:23;5.60;83.00
58809;DHT22;44579;51.672;7.834;2023-03-03T15:03:48;5.70;82.90
58809;DHT22;44579;51.672;7.834;2023-03-03T15:09:37;5.70;82.80
58809;DHT22;44579;51.672;7.834;2023-03-03T15:14:51;5.60;82.60
58809;DHT22;44579;51.672;7.834;2023-03-03T15:19:50;5.70;82.60
58809;DHT22;44579;51.672;7.834;2023-03-03T15:22:59;5.70;82.50
58809;DHT22;44579;51.672;7.834;2023-03-03T15:31:00;5.50;82.70
58809;DHT22;44579;51.672;7.834;2023-03-03T15:36:22;5.50;82.80
58809;DHT22;44579;51.672;7.834;2023-03-03T15:42:13;5.40;82.60
58809;DHT22;44579;51.672;7.834;2023-03-03T15:44:55;5.40;82.60
58809;DHT22;44579;51.672;7.834;2023-03-03T16:04:55;5.40;82.30
58809;DHT22;44579;51.672;7.834;2023-03-03T16:24:05;5.30;82.30
58809;DHT22;44579;51.672;7.834;2023-03-03T16:34:17;5.00;82.50
58809;DHT22;44579;51.672;7.834;2023-03-03T16:42:19;4.90;82.40
58809;DHT22;44579;51.672;7.834;2023-03-03T16:47:20;4.80;82.40
58809;DHT22;44579;51.672;7.834;2023-03-03T16:52:24;4.80;82.60
58809;DHT22;44579;51.672;7.834;2023-03-03T16:54:58;4.70;82.50
58809;DHT22;44579;51.672;7.834;2023-03-03T17:00:12;4.60;82.50
58809;DHT22;44579;51.672;7.834;2023-03-03T17:03:10;4.50;82.50
58809;DHT22;44579;51.672;7.834;2023-03-03T17:05:48;4.50;82.50
58809;DHT22;44579;51.672;7.834;2023-03-03T17:08:32;4.40;82.60
58809;DHT22;44579;51.672;7.834;2023-03-03T17:11:15;4.40;82.60
58809;DHT22;44579;51.672;7.834;2023-03-03T17:16:20;4.20;82.60
58809;DHT22;44579;51.672;7.834;2023-03-03T17:18:51;4.20;82.80
58809;DHT22;44579;51.672;7.834;2023-03-03T17:21:27;4.10;82.70
58809;DHT22;44579;51.672;7.834;2023-03-03T17:26:50;4.00;82.60
58809;DHT22;44579;51.672;7.834;2023-03-03T17:29:45;4.00;82.70
58809;DHT22;44579;51.672;7.834;2023-03-03T17:32:21;3.90;82.60
58809;DHT22;44579;51.672;7.834;2023-03-03T17:37:35;3.80;82.50
58809;DHT22;44579;51.672;7.834;2023-03-03T17:40:10;3.80;82.50
58809;DHT22;44579;51.672;7.834;2023-03-03T17:45:08;3.70;82.60
58809;DHT22;44579;51.672;7.834;2023-03-03T17:47:42;3.60;82.40
58809;DHT22;44579;51.672;7.834;2023-03-03T17:56:11;3.50;82.50
58809;DHT22;44579;51.672;7.834;2023-03-03T18:01:39;3.50;82.60
58809;DHT22;44579;51.672;7.834;2023-03-03T18:12:46;3.40;82.50
58809;DHT22;44579;51.672;7.834;2023-03-03T18:18:04;3.40;82.50
58809;DHT22;44579;51.672;7.834;2023-03-03T18:28:21;3.40;82.50
58809;DHT22;44579;51.672;7.834;2023-03-03T18:30:50;3.50;82.50
58809;DHT22;44579;51.672;7.834;2023-03-03T18:36:12;3.60;82.40
58809;DHT22;44579;51.672;7.834;2023-03-03T18:38:42;3.60;82.40
58809;DHT22;44579;51.672;7.834;2023-03-03T18:41:21;3.70;82.50
58809;DHT22;44579;51.672;7.834;2023-03-03T18:43:49;3.80;82.40
58809;DHT22;44579;51.672;7.834;2023-03-03T18:48:50;3.90;82.40
58809;DHT22;44579;51.672;7.834;2023-03-03T19:00:11;4.00;82.30
58809;DHT22;44579;51.672;7.834;2023-03-03T19:02:33;4.10;82.40
58809;DHT22;44579;51.672;7.834;2023-03-03T19:20:45;4.10;82.70
58809;DHT22;44579;51.672;7.834;2023-03-03T19:26:17;4.20;82.80
58809;DHT22;44579;51.672;7.834;2023-03-03T19:31:45;4.20;82.80
58809;DHT22;44579;51.672;7.834;2023-03-03T19:36:38;4.20;82.80
58809;DHT22;44579;51.672;7.834;2023-03-03T19:39:34;4.20;82.80
58809;DHT22;44579;51.672;7.834;2023-03-03T19:47:38;4.20;82.80
58809;DHT22;44579;51.672;7.834;2023-03-03T19:52:53;4.20;82.80
58809;DHT22;44579;51.672;7.834;2023-03-03T19:55:24;4.20;82.80
58809;DHT22;44579;51.672;7.834;2023-03-03T19:58:01;4.20;82.80
58809;DHT22;44579;51.672;7.834;2023-03-03T20:00:40;4.20;82.90
58809;DHT22;44579;51.672;7.834;2023-03-03T20:03:23;4.20;82.80
58809;DHT22;44579;51.672;7.834;2023-03-03T20:11:35;4.10;83.00
58809;DHT22;44579;51.672;7.834;2023-03-03T20:14:21;4.10;83.00
58809;DHT22;44579;51.672;7.834;2023-03-03T20:16:51;4.10;83.00
58809;DHT22;44579;51.672;7.834;2023-03-03T20:19:44;4.10;83.00
58809;DHT22;44579;51.672;7.834;2023-03-03T20:23:35;4.10;83.00
58809;DHT22;44579;51.672;7.834;2023-03-03T20:34:28;4.10;83.70
58809;DHT22;44579;51.672;7.834;2023-03-03T20:39:36;4.20;82.90
58809;DHT22;44579;51.672;7.834;2023-03-03T20:42:10;4.20;82.90
58809;DHT22;44579;51.672;7.834;2023-03-03T20:50:23;4.20;82.80
58809;DHT22;44579;51.672;7.834;2023-03-03T20:53:05;4.20;82.90
58809;DHT22;44579;51.672;7.834;2023-03-03T20:55:40;4.20;82.90
58809;DHT22;44579;51.672;7.834;2023-03-03T21:08:45;4.20;82.90
58809;DHT22;44579;51.672;7.834;2023-03-03T21:11:23;4.20;82.80
58809;DHT22;44579;51.672;7.834;2023-03-03T21:14:09;4.20;82.80
58809;DHT22;44579;51.672;7.834;2023-03-03T21:16:48;4.20;82.90
58809;DHT22;44579;51.672;7.834;2023-03-03T21:19:27;4.20;82.90
58809;DHT22;44579;51.672;7.834;2023-03-03T21:21:58;4.20;82.90
58809;DHT22;44579;51.672;7.834;2023-03-03T21:24:44;4.20;82.90
58809;DHT22;44579;51.672;7.834;2023-03-03T21:27:22;4.20;82.90
58809;DHT22;44579;51.672;7.834;2023-03-03T21:30:02;4.20;82.90
58809;DHT22;44579;51.672;7.834;2023-03-03T21:32:37;4.10;82.90
58809;DHT22;44579;51.672;7.834;2023-03-03T21:35:15;4.10;82.90
58809;DHT22;44579;51.672;7.834;2023-03-03T21:37:48;4.10;83.00
58809;DHT22;44579;51.672;7.834;2023-03-03T21:40:26;4.10;83.00
58809;DHT22;44579;51.672;7.834;2023-03-03T21:42:56;4.10;83.00
58809;DHT22;44579;51.672;7.834;2023-03-03T21:45:26;4.10;83.00
58809;DHT22;44579;51.672;7.834;2023-03-03T21:47:56;4.10;83.10
58809;DHT22;44579;51.672;7.834;2023-03-03T21:50:31;4.10;83.10
58809;DHT22;44579;51.672;7.834;2023-03-03T21:53:02;4.10;83.00
58809;DHT22;44579;51.672;7.834;2023-03-03T21:55:30;4.10;83.00
58809;DHT22;44579;51.672;7.834;2023-03-03T21:57:58;4.10;83.00
58809;DHT22;44579;51.672;7.834;2023-03-03T22:00:30;4.10;82.90
58809;DHT22;44579;51.672;7.834;2023-03-03T22:02:59;4.20;82.90
58809;DHT22;44579;51.672;7.834;2023-03-03T22:05:27;4.20;83.00
58809;DHT22;44579;51.672;7.834;2023-03-03T22:07:55;4.20;82.90
58809;DHT22;44579;51.672;7.834;2023-03-03T22:10:26;4.20;82.90
58809;DHT22;44579;51.672;7.834;2023-03-03T22:12:54;4.20;82.90
58809;DHT22;44579;51.672;7.834;2023-03-03T22:15:22;4.20;82.90
58809;DHT22;44579;51.672;7.834;2023-03-03T22:17:49;4.10;82.90
58809;DHT22;44579;51.672;7.834;2023-03-03T22:20:24;4.20;82.90
58809;DHT22;44579;51.672;7.834;2023-03-03T22:22:53;4.20;82.90
58809;DHT22;44579;51.672;7.834;2023-03-03T22:25:21;4.20;83.00
58809;DHT22;44579;51.672;7.834;2023-03-03T22:27:48;4.20;83.00
58809;DHT22;44579;51.672;7.834;2023-03-03T22:30:19;4.20;83.00
58809;DHT22;44579;51.672;7.834;2023-03-03T22:32:47;4.20;83.00
58809;DHT22;44579;51.672;7.834;2023-03-03T22:35:21;4.20;83.10
58809;DHT22;44579;51.672;7.834;2023-03-03T22:37:53;4.20;82.90
58809;DHT22;44579;51.672;7.834;2023-03-03T22:40:28;4.30;83.00
58809;DHT22;44579;51.672;7.834;2023-03-03T22:42:56;4.20;82.90
58809;DHT22;44579;51.672;7.834;2023-03-03T22:45:31;4.30;83.00